Time;durP1;ratioP1;P1;durP2;ratioP2;P2;SDS_P1;SDS_P2;PMS_P1;PMS_P2;Temp;Humidity;BMP_temperature;BMP_pressure;BME280_temperature;BME280_humidity;BME280_pressure;Samples;Min_cycle;Max_cycle;Signal;HPM_P1;HPM_P2
2023/04/15 00:00:50;;;;;;;26.88;7.40;;;10.90;99.90;;;;;;4962556;28;20037;-75
2023/04/15 00:03:16;;;;;;;39.88;7.90;;;10.90;99.90;;;;;;4961991;28;20415;-74
2023/04/15 00:05:42;;;;;;;38.08;9.02;;;10.80;99.90;;;;;;4962377;28;20078;-74
2023/04/15 00:08:07;;;;;;;30.17;6.68;;;10.80;99.90;;;;;;4962352;28;20026;-74
2023/04/15 00:10:33;;;;;;;30.63;9.15;;;10.70;99.90;;;;;;4962381;28;20484;-74
2023/04/15 00:12:59;;;;;;;36.90;8.23;;;10.70;99.90;;;;;;4960995;29;20023;-74
2023/04/15 00:15:26;;;;;;;43.70;9.95;;;10.70;99.90;;;;;;4960903;29;20039;-74
2023/04/15 00:17:52;;;;;;;35.15;7.35;;;10.60;99.90;;;;;;4961961;28;20023;-74
2023/04/15 00:20:17;;;;;;;28.90;6.88;;;10.50;99.90;;;;;;4960479;28;20514;-75
2023/04/15 00:22:43;;;;;;;43.05;9.25;;;10.50;99.90;;;;;;4961988;28;20058;-74
2023/04/15 00:25:08;;;;;;;51.40;9.73;;;10.50;99.90;;;;;;4962093;29;20073;-74
2023/04/15 00:27:34;;;;;;;33.92;7.50;;;10.40;99.90;;;;;;4961750;28;20015;-74
2023/04/15 00:30:00;;;;;;;40.40;8.73;;;10.40;99.90;;;;;;4960619;28;20031;-74
2023/04/15 00:32:26;;;;;;;32.20;7.20;;;10.40;99.90;;;;;;4960255;28;20019;-74
2023/04/15 00:34:52;;;;;;;36.97;9.25;;;10.40;99.90;;;;;;4960458;29;20518;-74
2023/04/15 00:37:18;;;;;;;47.35;10.32;;;10.50;99.90;;;;;;4960481;28;20082;-74
2023/04/15 00:39:44;;;;;;;41.35;9.85;;;10.50;99.90;;;;;;4959758;29;20499;-74
2023/04/15 00:42:09;;;;;;;23.08;8.13;;;10.50;99.90;;;;;;4961740;28;20019;-74
2023/04/15 00:44:35;;;;;;;33.85;8.88;;;10.60;99.90;;;;;;4961459;28;20027;-72
2023/04/15 00:47:02;;;;;;;30.15;8.98;;;10.60;99.90;;;;;;4961438;28;20027;-74
2023/04/15 00:49:28;;;;;;;17.63;7.45;;;10.60;99.90;;;;;;4960313;28;20035;-73
2023/04/15 00:51:54;;;;;;;38.70;8.63;;;10.70;99.90;;;;;;4961324;28;20030;-73
2023/04/15 00:54:21;;;;;;;56.58;10.85;;;10.70;99.90;;;;;;4961843;28;20030;-73
2023/04/15 00:56:46;;;;;;;33.08;7.95;;;10.70;99.90;;;;;;4961201;28;20026;-74
2023/04/15 00:59:14;;;;;;;36.33;7.40;;;10.60;99.90;;;;;;4960103;29;20027;-72
2023/04/15 01:01:40;;;;;;;36.75;8.70;;;10.60;99.90;;;;;;4961111;28;20032;-74
2023/04/15 01:04:06;;;;;;;38.00;8.15;;;10.60;99.90;;;;;;4961105;28;21630;-73
2023/04/15 01:06:31;;;;;;;32.33;8.43;;;10.50;99.90;;;;;;4961241;28;20046;-74
2023/04/15 01:08:58;;;;;;;32.03;8.00;;;10.50;99.90;;;;;;4959940;29;20027;-74
2023/04/15 01:11:24;;;;;;;44.83;8.82;;;10.40;99.90;;;;;;4961168;28;20110;-74
2023/04/15 01:13:51;;;;;;;31.48;7.55;;;10.40;99.90;;;;;;4960901;29;20043;-74
2023/04/15 01:16:18;;;;;;;38.83;8.85;;;10.40;99.90;;;;;;4961227;28;20035;-74
2023/04/15 01:18:45;;;;;;;37.65;9.55;;;10.40;99.90;;;;;;4960653;28;20027;-74
2023/04/15 01:21:11;;;;;;;32.65;9.35;;;10.40;99.90;;;;;;4959537;29;20106;-74
2023/04/15 01:23:38;;;;;;;33.10;8.48;;;10.40;99.90;;;;;;4960830;28;20501;-75
2023/04/15 01:26:06;;;;;;;28.88;7.38;;;10.40;99.90;;;;;;4960995;28;20369;-75
2023/04/15 01:28:32;;;;;;;43.42;8.38;;;10.30;99.90;;;;;;4959412;28;20513;-74
2023/04/15 01:31:11;;;;;;;38.20;8.23;;;10.30;99.90;;;;;;4960932;29;20027;-74
2023/04/15 01:33:38;;;;;;;22.77;6.47;;;10.30;99.90;;;;;;4959451;28;20035;-74
2023/04/15 01:36:07;;;;;;;41.03;10.93;;;10.40;99.90;;;;;;4960830;28;20091;-75
2023/04/15 01:38:33;;;;;;;36.08;8.85;;;10.40;99.90;;;;;;4960434;28;20032;-74
2023/04/15 01:40:59;;;;;;;36.10;7.75;;;10.40;99.90;;;;;;4959423;28;20102;-74
2023/04/15 01:43:28;;;;;;;39.58;8.55;;;10.40;99.90;;;;;;4960515;28;20058;-74
2023/04/15 01:45:54;;;;;;;30.27;8.23;;;10.40;99.90;;;;;;4960644;28;20440;-74
2023/04/15 01:48:20;;;;;;;26.67;6.38;;;10.50;99.90;;;;;;4960032;28;20042;-74
2023/04/15 01:50:46;;;;;;;38.15;8.82;;;10.50;99.90;;;;;;4960455;28;20020;-75
2023/04/15 01:53:11;;;;;;;35.78;7.63;;;10.60;99.90;;;;;;4960352;28;20031;-74
2023/04/15 01:55:37;;;;;;;17.75;4.53;;;10.70;99.90;;;;;;4959226;28;20042;-74
2023/04/15 01:58:03;;;;;;;33.70;8.55;;;10.70;99.90;;;;;;4960182;28;20027;-74
2023/04/15 02:00:29;;;;;;;21.30;8.38;;;10.70;99.90;;;;;;4960371;28;20034;-75
2023/04/15 02:02:55;;;;;;;24.17;7.88;;;10.70;99.90;;;;;;4959985;28;20075;-74
2023/04/15 02:05:20;;;;;;;36.20;9.80;;;10.50;99.90;;;;;;4960185;28;20496;-74
2023/04/15 02:07:47;;;;;;;30.95;7.15;;;10.30;99.90;;;;;;4960022;29;20023;-74
2023/04/15 02:10:13;;;;;;;27.63;7.78;;;10.20;99.90;;;;;;4959497;29;20563;-75
2023/04/15 02:12:39;;;;;;;36.92;7.82;;;10.20;99.90;;;;;;4959845;28;20031;-75
2023/04/15 02:15:06;;;;;;;37.42;7.75;;;10.10;99.90;;;;;;4960155;28;20019;-74
2023/04/15 02:17:34;;;;;;;21.85;7.25;;;10.10;99.90;;;;;;4959718;28;20024;-74
2023/04/15 02:20:01;;;;;;;28.60;5.05;;;10.10;99.90;;;;;;4959870;28;20034;-74
2023/04/15 02:22:26;;;;;;;26.73;5.93;;;10.10;99.90;;;;;;4959700;28;20055;-74
2023/04/15 02:24:53;;;;;;;18.23;6.18;;;10.10;99.90;;;;;;4958542;28;20023;-73
2023/04/15 02:27:18;;;;;;;19.40;4.68;;;10.00;99.90;;;;;;4959613;28;20019;-74
2023/04/15 02:29:44;;;;;;;15.90;3.97;;;10.00;99.90;;;;;;4959933;28;20030;-74
2023/04/15 02:32:11;;;;;;;17.42;4.68;;;9.90;99.90;;;;;;4959309;28;20030;-74
2023/04/15 02:34:40;;;;;;;21.13;4.97;;;9.90;99.90;;;;;;4959654;28;20019;-74
2023/04/15 02:37:06;;;;;;;16.20;4.95;;;9.80;99.90;;;;;;4959428;28;20055;-75
2023/04/15 02:39:32;;;;;;;22.02;4.63;;;9.70;99.90;;;;;;4959729;29;20139;-74
2023/04/15 02:41:59;;;;;;;20.80;4.90;;;9.60;99.90;;;;;;4959272;28;20036;-74
2023/04/15 02:44:26;;;;;;;24.73;5.82;;;9.60;99.90;;;;;;4959487;29;20015;-75
2023/04/15 02:46:53;;;;;;;13.07;4.45;;;9.60;99.90;;;;;;4959323;28;20024;-75
2023/04/15 02:49:19;;;;;;;26.05;6.85;;;9.60;99.90;;;;;;4959306;29;20011;-74
2023/04/15 02:51:48;;;;;;;21.00;6.10;;;9.70;99.90;;;;;;4959556;28;20399;-74
2023/04/15 02:54:17;;;;;;;30.85;6.10;;;9.60;99.90;;;;;;4959221;29;20051;-74
2023/04/15 02:56:43;;;;;;;22.40;6.80;;;9.60;99.90;;;;;;4959396;29;20361;-75
2023/04/15 02:59:09;;;;;;;27.65;7.85;;;9.70;99.90;;;;;;4959035;28;20034;-75
2023/04/15 03:01:34;;;;;;;32.63;8.40;;;9.80;99.90;;;;;;4957507;28;20515;-75
2023/04/15 03:04:00;;;;;;;26.02;6.78;;;9.90;99.90;;;;;;4958886;28;20024;-74
2023/04/15 03:06:26;;;;;;;25.50;6.40;;;10.00;99.90;;;;;;4958403;28;20110;-73
2023/04/15 03:08:51;;;;;;;17.77;4.78;;;10.00;99.90;;;;;;4959031;29;20015;-73
2023/04/15 03:11:18;;;;;;;20.67;6.80;;;10.10;99.90;;;;;;4958972;29;20057;-74
2023/04/15 03:13:43;;;;;;;18.98;5.45;;;10.30;99.90;;;;;;4958163;28;20395;-74
2023/04/15 03:16:09;;;;;;;17.77;5.00;;;10.30;99.90;;;;;;4958930;28;20030;-75
2023/04/15 03:18:35;;;;;;;16.83;6.15;;;10.20;99.90;;;;;;4958444;28;20016;-75
2023/04/15 03:21:01;;;;;;;18.33;6.03;;;10.10;99.90;;;;;;4957541;28;20126;-74
2023/04/15 03:23:27;;;;;;;29.98;7.78;;;10.10;99.90;;;;;;4958796;28;20104;-74
2023/04/15 03:25:56;;;;;;;25.23;6.45;;;10.00;99.90;;;;;;4959142;28;20612;-73
2023/04/15 03:28:21;;;;;;;19.33;5.53;;;10.00;99.90;;;;;;4958747;29;20022;-74
2023/04/15 03:30:47;;;;;;;38.33;6.88;;;9.90;99.90;;;;;;4959039;28;20031;-74
2023/04/15 03:33:12;;;;;;;30.98;5.63;;;9.90;99.90;;;;;;4958292;28;20102;-74
2023/04/15 03:35:38;;;;;;;33.10;7.57;;;9.90;99.90;;;;;;4958899;28;20055;-74
2023/04/15 03:38:04;;;;;;;26.65;6.57;;;9.90;99.90;;;;;;4958684;28;20019;-74
2023/04/15 03:40:30;;;;;;;22.48;6.07;;;9.90;99.90;;;;;;4958698;28;20094;-74
2023/04/15 03:42:55;;;;;;;18.45;5.28;;;9.80;99.90;;;;;;4958658;28;20440;-74
2023/04/15 03:45:21;;;;;;;25.80;5.78;;;9.90;99.90;;;;;;4957656;28;20035;-75
2023/04/15 03:47:46;;;;;;;16.75;4.82;;;9.90;99.90;;;;;;4958345;28;20050;-73
2023/04/15 03:50:12;;;;;;;15.90;5.22;;;9.90;99.90;;;;;;4958575;28;20093;-75
2023/04/15 03:52:38;;;;;;;16.08;5.38;;;9.90;99.90;;;;;;4958480;28;20023;-75
2023/04/15 03:55:04;;;;;;;24.52;4.80;;;9.90;99.90;;;;;;4958898;29;20031;-75
2023/04/15 03:57:30;;;;;;;16.23;4.63;;;9.80;99.90;;;;;;4957179;29;20055;-75
2023/04/15 03:59:55;;;;;;;14.55;4.57;;;9.80;99.90;;;;;;4958625;28;20407;-76
2023/04/15 04:02:21;;;;;;;23.55;5.53;;;9.70;99.90;;;;;;4957824;28;20016;-76
2023/04/15 04:04:47;;;;;;;18.77;4.28;;;9.70;99.90;;;;;;4958500;28;20075;-75
2023/04/15 04:07:16;;;;;;;20.35;5.60;;;9.70;99.90;;;;;;4958202;28;20027;-76
2023/04/15 04:09:42;;;;;;;22.90;7.03;;;9.70;99.90;;;;;;4957395;29;20035;-76
2023/04/15 04:12:08;;;;;;;16.98;4.68;;;9.60;99.90;;;;;;4958320;28;20498;-74
2023/04/15 04:14:33;;;;;;;34.13;6.47;;;9.60;99.90;;;;;;4957307;28;20129;-75
2023/04/15 04:16:59;;;;;;;18.45;5.35;;;9.60;99.90;;;;;;4957933;28;20028;-75
2023/04/15 04:19:25;;;;;;;23.63;6.07;;;9.60;99.90;;;;;;4957235;28;20031;-75
2023/04/15 04:21:51;;;;;;;19.35;4.85;;;9.60;99.90;;;;;;4956512;28;20049;-75
2023/04/15 04:24:17;;;;;;;25.95;6.00;;;9.70;99.90;;;;;;4960025;28;20031;-75
2023/04/15 04:26:42;;;;;;;22.65;5.97;;;9.70;99.90;;;;;;4961929;28;20023;-75
2023/04/15 04:29:08;;;;;;;16.75;4.90;;;9.70;99.90;;;;;;4962122;29;20099;-74
2023/04/15 04:31:34;;;;;;;27.60;5.63;;;9.70;99.90;;;;;;4961701;28;20147;-75
2023/04/15 04:33:59;;;;;;;19.13;5.45;;;9.70;99.90;;;;;;4961608;28;20102;-75
2023/04/15 04:36:25;;;;;;;15.40;4.53;;;9.60;99.90;;;;;;4960614;28;20027;-74
2023/04/15 04:38:51;;;;;;;23.05;6.72;;;9.60;99.90;;;;;;4961543;28;20035;-74
2023/04/15 04:41:17;;;;;;;17.95;5.07;;;9.50;99.90;;;;;;4961493;28;20038;-74
2023/04/15 04:43:42;;;;;;;20.85;5.55;;;9.50;99.90;;;;;;4960688;29;20077;-74
2023/04/15 04:46:09;;;;;;;27.55;6.10;;;9.50;99.90;;;;;;4961763;29;20020;-74
2023/04/15 04:48:35;;;;;;;18.20;5.05;;;9.50;99.90;;;;;;4961299;28;20365;-74
2023/04/15 04:51:01;;;;;;;21.02;5.80;;;9.50;99.90;;;;;;4960172;29;20031;-74
2023/04/15 04:53:27;;;;;;;19.77;5.85;;;9.60;99.90;;;;;;4961611;28;20035;-74
2023/04/15 04:55:52;;;;;;;20.48;5.93;;;9.60;99.90;;;;;;4961275;28;20066;-74
2023/04/15 04:58:18;;;;;;;20.42;5.55;;;9.70;99.90;;;;;;4961496;29;20439;-74
2023/04/15 05:00:44;;;;;;;13.45;4.47;;;9.70;99.90;;;;;;4961361;28;20027;-74
2023/04/15 05:03:10;;;;;;;14.95;5.85;;;9.80;99.90;;;;;;4961327;29;20027;-74
2023/04/15 05:05:38;;;;;;;19.25;5.90;;;9.80;99.90;;;;;;4961314;28;20020;-74
2023/04/15 05:08:04;;;;;;;17.70;5.25;;;9.90;99.90;;;;;;4961585;28;20024;-74
2023/04/15 05:10:30;;;;;;;26.58;5.65;;;9.80;99.90;;;;;;4961114;28;20562;-75
2023/04/15 05:12:56;;;;;;;22.63;5.05;;;9.90;99.90;;;;;;4961468;28;20027;-74
2023/04/15 05:15:22;;;;;;;21.67;5.13;;;9.90;99.90;;;;;;4961105;28;20019;-74
2023/04/15 05:17:48;;;;;;;9.90;3.80;;;9.90;99.90;;;;;;4960952;28;20027;-73
2023/04/15 05:20:14;;;;;;;21.67;4.85;;;10.00;99.90;;;;;;4961015;28;20030;-75
2023/04/15 05:22:40;;;;;;;15.65;4.25;;;10.00;99.90;;;;;;4961186;28;20082;-73
2023/04/15 05:25:06;;;;;;;19.60;4.55;;;10.00;99.90;;;;;;4961081;29;20020;-73
2023/04/15 05:27:32;;;;;;;19.77;4.57;;;10.10;99.90;;;;;;4959587;29;20115;-73
2023/04/15 05:29:57;;;;;;;11.52;5.30;;;10.10;99.90;;;;;;4959581;29;20051;-73
2023/04/15 05:32:23;;;;;;;15.38;4.60;;;10.20;99.90;;;;;;4959234;28;20059;-73
2023/04/15 05:34:49;;;;;;;16.05;5.10;;;10.20;99.90;;;;;;4960721;28;20059;-74
2023/04/15 05:37:14;;;;;;;11.52;3.92;;;10.20;99.90;;;;;;4960226;28;20078;-72
2023/04/15 05:39:41;;;;;;;18.27;4.25;;;10.20;99.90;;;;;;4959381;29;20031;-73
2023/04/15 05:42:06;;;;;;;8.93;3.25;;;10.20;99.90;;;;;;4960503;28;20051;-74
2023/04/15 05:44:32;;;;;;;13.70;4.18;;;10.30;99.90;;;;;;4960697;28;20051;-74
2023/04/15 05:46:58;;;;;;;7.72;3.75;;;10.20;99.90;;;;;;4960247;28;20034;-74
2023/04/15 05:49:24;;;;;;;15.00;3.88;;;10.20;99.90;;;;;;4960544;28;20381;-74
2023/04/15 05:51:50;;;;;;;12.75;4.35;;;10.10;99.90;;;;;;4960692;28;20086;-73
2023/04/15 05:54:16;;;;;;;15.80;3.97;;;10.10;99.90;;;;;;4954289;28;20027;-73
2023/04/15 05:56:41;;;;;;;10.65;4.20;;;10.10;99.90;;;;;;4959020;28;20027;-73
2023/04/15 05:59:07;;;;;;;17.02;4.18;;;10.10;99.90;;;;;;4960316;28;20083;-74
2023/04/15 06:01:33;;;;;;;10.45;3.97;;;10.00;99.90;;;;;;4959906;28;20035;-74
2023/04/15 06:03:59;;;;;;;13.10;4.28;;;10.00;99.90;;;;;;4958462;28;20037;-73
2023/04/15 06:06:26;;;;;;;13.45;4.28;;;10.00;99.90;;;;;;4960031;28;20103;-73
2023/04/15 06:08:52;;;;;;;10.43;4.00;;;10.00;99.90;;;;;;4960128;28;20083;-74
2023/04/15 06:11:20;;;;;;;6.72;2.90;;;10.00;99.90;;;;;;4959876;28;20028;-74
2023/04/15 06:13:45;;;;;;;10.32;4.80;;;10.00;99.90;;;;;;4960055;28;20437;-75
2023/04/15 06:16:11;;;;;;;8.15;3.42;;;10.00;99.90;;;;;;4958604;28;20097;-74
2023/04/15 06:18:37;;;;;;;14.48;3.47;;;10.00;99.90;;;;;;4959502;28;20514;-74
2023/04/15 06:21:03;;;;;;;12.38;4.45;;;9.90;99.90;;;;;;4959876;28;20047;-74
2023/04/15 06:23:29;;;;;;;7.45;3.08;;;9.90;99.90;;;;;;4958473;28;20025;-75
2023/04/15 06:25:54;;;;;;;12.60;3.65;;;9.90;99.90;;;;;;4959697;28;20027;-73
2023/04/15 06:28:20;;;;;;;12.02;4.35;;;9.90;99.90;;;;;;4959240;28;20406;-75
2023/04/15 06:30:46;;;;;;;10.23;4.70;;;10.00;99.90;;;;;;4959933;29;20035;-75
2023/04/15 06:33:12;;;;;;;6.15;3.00;;;10.00;99.90;;;;;;4958314;28;20031;-74
2023/04/15 06:35:38;;;;;;;13.13;3.97;;;10.10;99.90;;;;;;4959912;28;20031;-75
2023/04/15 06:38:04;;;;;;;13.93;3.50;;;10.20;99.90;;;;;;4959463;28;20105;-73
2023/04/15 06:40:30;;;;;;;10.75;3.65;;;10.20;99.90;;;;;;4959442;28;20063;-74
2023/04/15 06:42:55;;;;;;;19.13;4.35;;;10.30;99.90;;;;;;4959285;28;20510;-74
2023/04/15 06:45:21;;;;;;;8.48;3.38;;;10.30;99.90;;;;;;4959661;28;20122;-73
2023/04/15 06:47:47;;;;;;;14.38;3.45;;;10.30;99.90;;;;;;4947214;28;20414;-72
2023/04/15 06:50:13;;;;;;;12.68;4.57;;;10.20;99.90;;;;;;4967191;28;20027;-73
2023/04/15 06:52:39;;;;;;;13.45;3.17;;;10.20;99.90;;;;;;4971821;28;20403;-73
2023/04/15 06:55:06;;;;;;;12.27;4.38;;;10.20;99.90;;;;;;4972435;28;20042;-71
2023/04/15 06:57:32;;;;;;;13.25;3.60;;;10.20;99.90;;;;;;4968874;28;20437;-72
2023/04/15 06:59:58;;;;;;;11.93;3.70;;;10.20;99.90;;;;;;4966046;28;20031;-72
2023/04/15 07:02:23;;;;;;;18.33;4.38;;;10.10;99.90;;;;;;4970932;28;20369;-74
2023/04/15 07:04:49;;;;;;;12.75;3.22;;;10.10;99.90;;;;;;4962894;28;20034;-72
2023/04/15 07:07:16;;;;;;;3.80;2.78;;;10.00;99.90;;;;;;4963117;28;20074;-73
2023/04/15 07:09:42;;;;;;;2.72;2.30;;;9.90;99.90;;;;;;4970663;28;20049;-72
2023/04/15 07:12:07;;;;;;;2.63;2.03;;;9.80;99.90;;;;;;4960107;28;20037;-73
2023/04/15 07:14:33;;;;;;;2.85;2.28;;;9.70;99.90;;;;;;4968706;28;20034;-72
2023/04/15 07:16:59;;;;;;;4.53;2.40;;;9.70;99.90;;;;;;4960101;28;20435;-72
2023/04/15 07:19:25;;;;;;;9.30;3.42;;;9.70;99.90;;;;;;4960620;28;21663;-73
2023/04/15 07:21:51;;;;;;;5.88;2.58;;;9.60;99.90;;;;;;4965575;28;20125;-73
2023/04/15 07:24:18;;;;;;;5.10;2.97;;;9.60;99.90;;;;;;4953267;28;20035;-73
2023/04/15 07:26:44;;;;;;;3.15;2.45;;;9.60;99.90;;;;;;4954003;28;20023;-72
2023/04/15 07:29:10;;;;;;;7.13;2.63;;;9.60;99.90;;;;;;4951973;28;20083;-73
2023/04/15 07:31:36;;;;;;;4.68;3.28;;;9.60;99.90;;;;;;4967870;28;20483;-72
2023/04/15 07:34:02;;;;;;;7.45;3.30;;;9.60;99.90;;;;;;4970367;28;20022;-74
2023/04/15 07:36:28;;;;;;;6.72;2.35;;;9.60;99.90;;;;;;4971314;28;20078;-73
2023/04/15 07:38:54;;;;;;;5.18;2.80;;;9.50;99.90;;;;;;4968611;28;20616;-74
2023/04/15 07:41:20;;;;;;;6.75;2.85;;;9.50;99.90;;;;;;4970813;28;20399;-75
2023/04/15 07:43:47;;;;;;;6.05;3.63;;;9.60;99.90;;;;;;4968661;28;20055;-75
2023/04/15 07:46:13;;;;;;;7.60;3.50;;;9.60;99.90;;;;;;4970478;28;20016;-75
2023/04/15 07:48:39;;;;;;;9.38;3.13;;;9.60;99.90;;;;;;4967061;28;20033;-74
2023/04/15 07:51:05;;;;;;;4.47;2.80;;;9.70;99.90;;;;;;4935306;28;20543;-76
2023/04/15 07:53:31;;;;;;;10.63;4.53;;;9.70;99.90;;;;;;4959288;28;20086;-77
2023/04/15 07:55:57;;;;;;;7.38;3.83;;;9.80;99.90;;;;;;4956933;29;20090;-74
2023/04/15 07:58:23;;;;;;;8.10;4.28;;;9.80;99.90;;;;;;4957265;28;20028;-75
2023/04/15 08:00:49;;;;;;;9.27;3.60;;;9.90;99.90;;;;;;4962385;29;20034;-74
2023/04/15 08:03:15;;;;;;;7.18;3.40;;;10.00;99.90;;;;;;4948691;28;20031;-75
2023/04/15 08:05:40;;;;;;;6.22;3.75;;;10.00;99.90;;;;;;4967914;28;20109;-75
2023/04/15 08:08:07;;;;;;;7.65;4.05;;;10.00;99.90;;;;;;4969140;28;20480;-77
2023/04/15 08:10:33;;;;;;;10.10;4.00;;;10.10;99.90;;;;;;4976642;28;20031;-75
2023/04/15 08:12:58;;;;;;;14.35;3.88;;;10.10;99.90;;;;;;4971516;28;20038;-74
2023/04/15 08:15:25;;;;;;;12.77;4.57;;;10.00;99.90;;;;;;4968804;28;20023;-75
2023/04/15 08:17:51;;;;;;;26.42;4.45;;;10.10;99.90;;;;;;4965951;28;20042;-75
2023/04/15 08:20:16;;;;;;;14.40;4.00;;;10.10;99.90;;;;;;4970160;28;20023;-76
2023/04/15 08:22:42;;;;;;;12.80;6.22;;;10.10;99.90;;;;;;4966253;28;20038;-75
2023/04/15 08:25:09;;;;;;;13.65;4.70;;;10.10;99.90;;;;;;4970940;28;20014;-74
2023/04/15 08:27:35;;;;;;;7.65;4.13;;;10.20;99.90;;;;;;4978960;28;20019;-74
2023/04/15 08:30:01;;;;;;;12.10;4.78;;;10.20;99.90;;;;;;4971490;28;20019;-74
2023/04/15 08:32:26;;;;;;;12.52;4.90;;;10.20;99.90;;;;;;4965236;28;20484;-74
2023/04/15 08:34:52;;;;;;;11.07;4.70;;;10.30;99.90;;;;;;4975511;28;20031;-74
2023/04/15 08:37:18;;;;;;;10.52;3.97;;;10.30;99.90;;;;;;4966979;28;20038;-75
2023/04/15 08:39:44;;;;;;;15.48;3.88;;;10.30;99.90;;;;;;4970191;28;20034;-75
2023/04/15 08:42:16;;;;;;;14.07;3.90;;;10.50;99.90;;;;;;4967681;28;20121;-75
2023/04/15 08:44:43;;;;;;;9.45;3.97;;;10.50;99.90;;;;;;4967479;28;20019;-74
2023/04/15 08:47:12;;;;;;;12.00;3.72;;;10.60;99.90;;;;;;4971517;28;20019;-74
2023/04/15 08:49:42;;;;;;;15.43;4.20;;;10.70;99.90;;;;;;4963358;28;20031;-75
2023/04/15 08:52:08;;;;;;;10.10;3.53;;;10.80;99.90;;;;;;4972862;28;20031;-76
2023/04/15 08:54:35;;;;;;;14.98;5.50;;;10.90;99.90;;;;;;4974695;28;20062;-75
2023/04/15 08:57:04;;;;;;;14.02;4.65;;;11.00;99.90;;;;;;4971477;28;20031;-75
2023/04/15 08:59:30;;;;;;;12.38;5.68;;;11.10;99.90;;;;;;4971539;28;20483;-74
2023/04/15 09:01:57;;;;;;;16.98;5.18;;;11.20;99.90;;;;;;4976214;28;20037;-75
2023/04/15 09:04:22;;;;;;;14.75;6.45;;;11.40;99.90;;;;;;4971629;28;20023;-75
2023/04/15 09:06:48;;;;;;;19.00;5.78;;;11.50;99.90;;;;;;4966263;28;20031;-75
2023/04/15 09:09:14;;;;;;;14.15;4.13;;;11.60;99.90;;;;;;4965939;28;20047;-75
2023/04/15 09:11:41;;;;;;;10.40;4.82;;;11.60;99.90;;;;;;4968145;28;20039;-74
2023/04/15 09:14:06;;;;;;;9.57;4.20;;;11.70;99.90;;;;;;4970798;28;20030;-74
2023/04/15 09:16:56;;;;;;;5.93;2.72;;;11.70;99.90;;;;;;4972117;28;20451;-74
2023/04/15 09:19:23;;;;;;;7.60;2.95;;;11.80;99.90;;;;;;4970299;28;20403;-75
2023/04/15 09:21:50;;;;;;;7.82;3.40;;;11.90;99.90;;;;;;4967681;28;20078;-74
2023/04/15 09:24:16;;;;;;;12.20;3.33;;;12.00;99.90;;;;;;4966811;28;20014;-74
2023/04/15 09:26:42;;;;;;;8.93;3.83;;;12.00;99.90;;;;;;4974818;28;20521;-76
2023/04/15 09:29:12;;;;;;;16.05;3.67;;;12.00;99.90;;;;;;4965436;28;20023;-76
2023/04/15 09:31:38;;;;;;;16.63;3.42;;;12.10;99.90;;;;;;4973232;28;20114;-75
2023/04/15 09:34:05;;;;;;;11.95;3.55;;;12.10;99.90;;;;;;4971652;28;20027;-75
2023/04/15 09:36:45;;;;;;;19.88;3.67;;;12.10;99.90;;;;;;4972257;28;20031;-76
2023/04/15 09:39:11;;;;;;;9.77;3.90;;;12.20;99.90;;;;;;4967151;28;20399;-74
2023/04/15 09:41:37;;;;;;;9.32;3.33;;;12.20;99.90;;;;;;4973625;28;20042;-75
2023/04/15 09:44:03;;;;;;;10.00;2.95;;;12.10;99.90;;;;;;4966691;28;20023;-76
2023/04/15 09:46:43;;;;;;;14.98;4.03;;;12.20;99.90;;;;;;4971878;28;20024;-73
2023/04/15 09:49:09;;;;;;;6.25;2.83;;;12.30;99.90;;;;;;4969490;28;20066;-74
2023/04/15 09:51:35;;;;;;;15.57;4.00;;;12.30;99.90;;;;;;4969571;28;20039;-76
2023/04/15 09:54:01;;;;;;;10.35;6.82;;;12.30;99.90;;;;;;4963034;28;20031;-74
2023/04/15 09:56:40;;;;;;;8.98;2.72;;;12.40;99.90;;;;;;4971081;28;20024;-75
2023/04/15 09:59:07;;;;;;;11.90;3.88;;;12.50;99.90;;;;;;4973442;28;20025;-74
2023/04/15 10:01:33;;;;;;;12.63;3.05;;;12.70;99.90;;;;;;4971289;28;20566;-75
2023/04/15 10:04:02;;;;;;;5.50;2.60;;;12.80;99.90;;;;;;4966258;28;20019;-75
2023/04/15 10:06:29;;;;;;;10.70;3.88;;;12.90;99.90;;;;;;4972945;28;20077;-73
2023/04/15 10:08:56;;;;;;;6.25;3.53;;;12.90;99.90;;;;;;4972221;28;20081;-73
2023/04/15 10:11:23;;;;;;;8.32;2.78;;;13.00;99.90;;;;;;4966721;28;20030;-72
2023/04/15 10:13:50;;;;;;;10.88;2.92;;;13.00;99.90;;;;;;4971288;28;20092;-72
2023/04/15 10:16:18;;;;;;;8.02;3.00;;;13.00;99.90;;;;;;4974183;28;20031;-74
2023/04/15 10:18:47;;;;;;;6.80;3.05;;;12.80;99.90;;;;;;4970232;28;20035;-71
2023/04/15 10:21:17;;;;;;;9.48;3.03;;;12.80;99.90;;;;;;4969301;28;20047;-72
2023/04/15 10:23:46;;;;;;;9.10;2.92;;;12.80;99.90;;;;;;4970269;28;20462;-72
2023/04/15 10:26:19;;;;;;;8.85;3.35;;;12.80;99.90;;;;;;4964632;28;20023;-72
2023/04/15 10:28:48;;;;;;;4.38;2.70;;;12.90;99.90;;;;;;4960828;28;20060;-72
2023/04/15 10:31:15;;;;;;;8.73;3.25;;;13.00;99.90;;;;;;4967707;28;20051;-72
2023/04/15 10:33:43;;;;;;;13.38;4.93;;;13.10;99.90;;;;;;4966768;28;20031;-73
2023/04/15 10:36:09;;;;;;;8.77;2.85;;;13.10;99.90;;;;;;4973266;28;20038;-73
2023/04/15 10:38:42;;;;;;;8.77;3.63;;;13.00;99.90;;;;;;4970559;28;20392;-71
2023/04/15 10:41:29;;;;;;;7.90;2.70;;;13.00;99.90;;;;;;4971225;28;20062;-72
2023/04/15 10:43:59;;;;;;;8.80;3.30;;;13.00;99.90;;;;;;4960209;28;20023;-73
2023/04/15 10:46:37;;;;;;;7.07;2.47;;;13.00;99.90;;;;;;4967616;28;20034;-74
2023/04/15 10:49:23;;;;;;;8.20;2.83;;;13.00;99.90;;;;;;4968858;28;20102;-73
2023/04/15 10:51:58;;;;;;;5.82;2.47;;;13.20;99.90;;;;;;4970566;28;20062;-73
2023/04/15 10:54:24;;;;;;;8.68;3.72;;;13.50;99.90;;;;;;4970962;28;20027;-72
2023/04/15 10:57:05;;;;;;;7.50;4.22;;;13.50;99.90;;;;;;4970754;28;20038;-73
2023/04/15 10:59:58;;;;;;;8.07;2.90;;;13.70;99.90;;;;;;4972075;28;20031;-73
2023/04/15 11:03:11;;;;;;;4.72;2.78;;;13.60;99.90;;;;;;4966422;28;20033;-73
2023/04/15 11:05:40;;;;;;;5.63;2.65;;;13.60;99.90;;;;;;4942379;28;20035;-75
2023/04/15 11:08:07;;;;;;;8.93;2.63;;;13.60;99.90;;;;;;4968116;28;20472;-72
2023/04/15 11:10:33;;;;;;;8.55;2.60;;;13.40;99.90;;;;;;4966598;28;20489;-74
2023/04/15 11:13:14;;;;;;;5.88;2.70;;;13.30;99.90;;;;;;4965588;28;20174;-74
2023/04/15 11:15:45;;;;;;;6.75;2.17;;;13.30;99.90;;;;;;4971572;28;20491;-73
2023/04/15 11:18:21;;;;;;;7.55;3.03;;;13.40;99.90;;;;;;4969305;28;20117;-73
2023/04/15 11:20:53;;;;;;;4.20;2.15;;;13.40;99.90;;;;;;4966142;28;20053;-75
2023/04/15 11:23:28;;;;;;;9.48;2.72;;;13.40;99.90;;;;;;4961354;28;20034;-75
2023/04/15 11:25:58;;;;;;;13.90;2.65;;;13.50;99.90;;;;;;4966144;28;20715;-74
2023/04/15 11:28:26;;;;;;;3.58;2.40;;;13.80;99.90;;;;;;4968450;28;20019;-73
2023/04/15 11:30:53;;;;;;;3.13;2.40;;;14.10;99.90;;;;;;4965146;28;20051;-74
2023/04/15 11:33:18;;;;;;;7.18;2.40;;;14.20;99.90;;;;;;4965952;28;20027;-74
2023/04/15 11:35:44;;;;;;;4.63;2.10;;;14.20;99.90;;;;;;4969783;28;20034;-74
2023/04/15 11:38:12;;;;;;;8.27;3.03;;;14.00;99.90;;;;;;4973002;28;20651;-73
2023/04/15 11:40:39;;;;;;;7.15;2.42;;;13.90;99.90;;;;;;4971938;28;20041;-74
2023/04/15 11:43:17;;;;;;;5.70;2.28;;;13.90;99.90;;;;;;4954856;28;20027;-75
2023/04/15 11:45:56;;;;;;;11.05;2.88;;;13.90;99.90;;;;;;4964613;28;20019;-76
2023/04/15 11:48:30;;;;;;;8.55;2.45;;;13.90;99.90;;;;;;4967731;28;20471;-76
2023/04/15 11:50:59;;;;;;;5.05;2.67;;;14.10;99.90;;;;;;4965888;28;20041;-73
2023/04/15 11:53:36;;;;;;;6.43;2.65;;;14.10;99.90;;;;;;4960275;28;20544;-74
2023/04/15 11:56:02;;;;;;;9.60;3.58;;;14.10;99.90;;;;;;4959120;28;20031;-74
2023/04/15 11:58:29;;;;;;;7.53;2.83;;;14.00;99.90;;;;;;4962235;28;20042;-77
2023/04/15 12:00:58;;;;;;;8.43;2.47;;;14.00;99.90;;;;;;4965042;28;20035;-80
2023/04/15 12:03:42;;;;;;;5.53;2.93;;;14.30;99.90;;;;;;4965570;28;20438;-77
2023/04/15 12:06:15;;;;;;;5.97;1.92;;;14.60;99.90;;;;;;4958686;28;20262;-74
2023/04/15 12:09:06;;;;;;;4.18;2.00;;;14.60;99.90;;;;;;4972370;28;20027;-74
2023/04/15 12:11:39;;;;;;;8.95;2.25;;;14.60;99.90;;;;;;4959402;28;20035;-74
2023/04/15 12:14:07;;;;;;;5.07;2.53;;;14.60;99.90;;;;;;4964855;28;20143;-74
2023/04/15 12:16:53;;;;;;;6.63;2.63;;;14.50;99.90;;;;;;4972665;28;20129;-76
2023/04/15 12:19:23;;;;;;;9.73;2.30;;;14.70;99.90;;;;;;4955460;28;20527;-76
2023/04/15 12:21:51;;;;;;;5.35;2.30;;;14.60;99.90;;;;;;4963211;28;20051;-75
2023/04/15 12:24:21;;;;;;;3.72;1.90;;;14.80;99.90;;;;;;4968760;28;20107;-76
2023/04/15 12:26:52;;;;;;;4.07;2.37;;;15.00;99.90;;;;;;4964691;28;20062;-73
2023/04/15 12:29:19;;;;;;;8.10;2.60;;;14.90;99.90;;;;;;4968107;28;20266;-74
2023/04/15 12:31:53;;;;;;;9.50;2.28;;;14.80;99.90;;;;;;4968432;28;20031;-75
2023/04/15 12:34:27;;;;;;;5.63;2.20;;;14.90;99.90;;;;;;4966083;28;20050;-75
2023/04/15 12:36:53;;;;;;;5.35;2.20;;;14.70;99.90;;;;;;4966674;28;20037;-77
2023/04/15 12:39:27;;;;;;;5.63;1.90;;;14.50;99.90;;;;;;4969007;28;20032;-77
2023/04/15 12:41:54;;;;;;;6.55;2.75;;;14.50;99.90;;;;;;4979097;28;20050;-77
2023/04/15 12:44:22;;;;;;;9.45;2.13;;;14.60;99.90;;;;;;4967136;28;20023;-74